createdAt,value
2023-04-10T00:01:11.883Z,99804.69
2023-04-10T00:03:38.912Z,99810.19
2023-04-10T00:06:06.501Z,99807.75
2023-04-10T00:08:33.437Z,99810.63
2023-04-10T00:11:00.686Z,99806.28
2023-04-10T00:13:27.641Z,99807.00
2023-04-10T00:15:54.701Z,99805.75
2023-04-10T00:18:21.472Z,99809.75
2023-04-10T00:20:48.780Z,99807.56
2023-04-10T00:23:15.866Z,99810.28
2023-04-10T00:25:42.880Z,99799.06
2023-04-10T00:28:09.674Z,99794.47
2023-04-10T00:30:37.161Z,99800.56
2023-04-10T00:33:04.108Z,99793.91
2023-04-10T00:35:31.115Z,99789.63
2023-04-10T00:37:58.256Z,99787.75
2023-04-10T00:40:25.400Z,99780.72
2023-04-10T00:42:52.389Z,99783.06
2023-04-10T00:45:19.350Z,99785.47
2023-04-10T00:47:46.567Z,99778.13
2023-04-10T00:50:13.948Z,99791.25
2023-04-10T00:52:40.894Z,99795.28
2023-04-10T00:55:08.397Z,99796.44
2023-04-10T00:57:35.641Z,99790.28
2023-04-10T01:00:03.150Z,99792.47
2023-04-10T01:02:30.319Z,99798.75
2023-04-10T01:04:57.576Z,99793.72
2023-04-10T01:07:44.368Z,99799.06
2023-04-10T01:10:52.916Z,99807.06
2023-04-10T01:13:28.551Z,99802.44
2023-04-10T01:16:06.372Z,99810.44
2023-04-10T01:18:47.301Z,99806.19
2023-04-10T01:21:15.338Z,99799.19
2023-04-10T01:24:17.261Z,99813.03
2023-04-10T01:27:16.486Z,99812.13
2023-04-10T01:29:50.503Z,99813.38
2023-04-10T01:32:21.868Z,99813.31
2023-04-10T01:34:51.380Z,99810.88
2023-04-10T01:37:22.678Z,99807.19
2023-04-10T01:39:59.758Z,99814.06
2023-04-10T01:42:29.063Z,99805.75
2023-04-10T01:44:56.763Z,99806.44
2023-04-10T01:47:24.751Z,99804.75
2023-04-10T01:49:51.973Z,99807.53
2023-04-10T01:52:19.613Z,99805.84
2023-04-10T01:54:49.006Z,99808.59
2023-04-10T01:57:19.756Z,99793.47
2023-04-10T01:59:46.535Z,99801.16
2023-04-10T02:02:13.656Z,99805.09
2023-04-10T02:04:40.837Z,99806.75
2023-04-10T02:07:11.481Z,99801.88
2023-04-10T02:10:00.726Z,99800.56
2023-04-10T02:12:35.267Z,99798.38
2023-04-10T02:15:03.381Z,99802.22
2023-04-10T02:17:31.533Z,99796.22
2023-04-10T02:19:59.375Z,99794.03
2023-04-10T02:22:27.647Z,99793.06
2023-04-10T02:24:55.263Z,99791.25
2023-04-10T02:27:31.770Z,99792.16
2023-04-10T02:29:58.988Z,99783.59
2023-04-10T02:32:26.076Z,99794.34
2023-04-10T02:34:52.940Z,99788.47
2023-04-10T02:37:19.667Z,99791.19
2023-04-10T02:39:46.717Z,99794.25
2023-04-10T02:42:13.528Z,99786.47
2023-04-10T02:44:40.256Z,99791.25
2023-04-10T02:47:07.564Z,99789.22
2023-04-10T02:49:37.917Z,99792.66
2023-04-10T02:52:04.801Z,99785.75
2023-04-10T02:54:32.093Z,99780.88
2023-04-10T02:56:58.861Z,99778.56
2023-04-10T02:59:25.966Z,99773.09
2023-04-10T03:01:52.772Z,99776.88
2023-04-10T03:04:20.127Z,99772.59
2023-04-10T03:06:46.880Z,99788.94
2023-04-10T03:09:13.608Z,99783.50
2023-04-10T03:11:40.726Z,99779.28
2023-04-10T03:14:09.944Z,99784.28
2023-04-10T03:16:37.010Z,99786.38
2023-04-10T03:19:04.972Z,99784.34
2023-04-10T03:21:32.228Z,99779.78
2023-04-10T03:23:58.936Z,99779.31
2023-04-10T03:26:25.763Z,99775.19
2023-04-10T03:28:52.567Z,99780.31
2023-04-10T03:31:19.765Z,99771.25
2023-04-10T03:33:46.817Z,99770.06
2023-04-10T03:36:13.639Z,99769.53
2023-04-10T03:38:40.818Z,99769.06
2023-04-10T03:41:07.950Z,99772.91
2023-04-10T03:43:35.082Z,99765.19
2023-04-10T03:46:02.144Z,99770.09
2023-04-10T03:48:30.831Z,99768.28
2023-04-10T03:50:57.747Z,99775.53
2023-04-10T03:53:24.770Z,99763.41
2023-04-10T03:55:52.873Z,99769.84
2023-04-10T03:58:19.626Z,99768.13
2023-04-10T04:00:46.874Z,99772.94
2023-04-10T04:03:14.141Z,99776.13
2023-04-10T04:05:41.023Z,99780.41
2023-04-10T04:08:09.950Z,99774.38
2023-04-10T04:10:37.064Z,99777.97
2023-04-10T04:13:03.837Z,99775.63
2023-04-10T04:15:30.543Z,99778.91
2023-04-10T04:17:58.437Z,99769.75
2023-04-10T04:20:25.164Z,99765.75
2023-04-10T04:22:52.394Z,99765.81
2023-04-10T04:25:20.595Z,99779.59
2023-04-10T04:27:47.585Z,99776.00
2023-04-10T04:30:14.361Z,99770.56
2023-04-10T04:32:41.373Z,99784.34
2023-04-10T04:35:09.106Z,99785.25
2023-04-10T04:37:36.020Z,99779.03
2023-04-10T04:40:03.575Z,99776.25
2023-04-10T04:42:30.264Z,99776.38
2023-04-10T04:44:57.035Z,99777.81
2023-04-10T04:47:24.889Z,99770.47
2023-04-10T04:49:51.936Z,99770.09
2023-04-10T04:52:18.943Z,99777.50
2023-04-10T04:54:45.834Z,99783.91
2023-04-10T04:57:12.757Z,99778.94
2023-04-10T04:59:44.080Z,99785.03
2023-04-10T05:02:11.215Z,99780.09
2023-04-10T05:04:38.142Z,99774.28
2023-04-10T05:07:05.778Z,99783.47
2023-04-10T05:09:33.057Z,99770.31
2023-04-10T05:12:00.561Z,99772.16
2023-04-10T05:14:27.322Z,99780.72
2023-04-10T05:16:54.143Z,99773.72
2023-04-10T05:19:21.464Z,99772.63
2023-04-10T05:21:48.190Z,99781.72
2023-04-10T05:24:15.288Z,99772.84
2023-04-10T05:26:42.879Z,99780.41
2023-04-10T05:29:10.290Z,99785.50
2023-04-10T05:31:37.193Z,99790.88
2023-04-10T05:34:04.349Z,99781.16
2023-04-10T05:36:32.444Z,99783.91
2023-04-10T05:38:59.350Z,99790.03
2023-04-10T05:41:26.366Z,99790.72
2023-04-10T05:43:53.480Z,99790.25
2023-04-10T05:46:20.257Z,99780.88
2023-04-10T05:48:46.993Z,99794.06
2023-04-10T05:51:14.319Z,99794.47
2023-04-10T05:53:41.257Z,99794.16
2023-04-10T05:56:08.713Z,99794.25
2023-04-10T05:58:35.625Z,99793.00
2023-04-10T06:01:02.385Z,99796.03
2023-04-10T06:03:31.314Z,99796.44
2023-04-10T06:05:58.678Z,99790.81
2023-04-10T06:08:25.957Z,99796.13
2023-04-10T06:10:53.166Z,99792.44
2023-04-10T06:13:20.036Z,99786.22
2023-04-10T06:15:46.914Z,99784.78
2023-04-10T06:18:13.902Z,99783.59
2023-04-10T06:20:41.014Z,99785.97
2023-04-10T06:23:07.854Z,99772.38
2023-04-10T06:25:34.871Z,99783.81
2023-04-10T06:28:01.776Z,99785.97
2023-04-10T06:30:28.544Z,99782.56
2023-04-10T06:32:55.347Z,99782.50
2023-04-10T06:35:22.291Z,99777.66
2023-04-10T06:37:49.009Z,99773.28
2023-04-10T06:40:16.397Z,99780.38
2023-04-10T06:42:43.326Z,99773.59
2023-04-10T06:45:10.789Z,99771.72
2023-04-10T06:47:38.655Z,99769.38
2023-04-10T06:50:06.533Z,99771.13
2023-04-10T06:52:33.627Z,99775.00
2023-04-10T06:55:00.589Z,99775.00
2023-04-10T06:57:27.600Z,99772.88
2023-04-10T06:59:55.087Z,99770.22
2023-04-10T07:02:22.439Z,99768.84
2023-04-10T07:04:49.450Z,99768.28
2023-04-10T07:07:16.527Z,99768.59
2023-04-10T07:09:44.380Z,99762.91
2023-04-10T07:12:11.528Z,99764.28
2023-04-10T07:14:39.064Z,99748.53
2023-04-10T07:17:06.785Z,99751.84
2023-04-10T07:19:33.747Z,99751.00
2023-04-10T07:22:01.153Z,99749.84
2023-04-10T07:24:31.367Z,99751.06
2023-04-10T07:26:58.987Z,99747.59
2023-04-10T07:29:26.375Z,99749.63
2023-04-10T07:31:53.647Z,99748.31
2023-04-10T07:34:20.664Z,99734.81
2023-04-10T07:36:47.710Z,99735.66
2023-04-10T07:39:14.963Z,99737.03
2023-04-10T07:41:41.791Z,99736.84
2023-04-10T07:44:08.662Z,99726.19
2023-04-10T07:46:35.712Z,99737.75
2023-04-10T07:49:02.994Z,99726.78
2023-04-10T07:51:29.824Z,99730.94
2023-04-10T07:53:56.581Z,99727.59
2023-04-10T07:56:23.772Z,99716.75
2023-04-10T07:58:51.773Z,99727.75
2023-04-10T08:01:19.119Z,99725.94
2023-04-10T08:03:47.869Z,99719.75
2023-04-10T08:06:14.879Z,99709.38
2023-04-10T08:08:42.395Z,99712.53
2023-04-10T08:11:31.900Z,99718.09
2023-04-10T08:14:03.991Z,99712.00
2023-04-10T08:16:32.285Z,99701.06
2023-04-10T08:18:59.857Z,99705.41
2023-04-10T08:21:27.733Z,99692.50
2023-04-10T08:23:55.785Z,99696.09
2023-04-10T08:26:23.333Z,99686.66
2023-04-10T08:28:52.254Z,99689.44
2023-04-10T08:31:20.705Z,99684.28
2023-04-10T08:33:48.198Z,99670.88
2023-04-10T08:36:20.322Z,99674.38
2023-04-10T08:38:48.049Z,99669.44
2023-04-10T08:41:19.037Z,99666.97
2023-04-10T08:43:46.674Z,99662.13
2023-04-10T08:46:15.234Z,99656.44
2023-04-10T08:49:03.224Z,99662.59
2023-04-10T08:51:35.067Z,99668.50
2023-04-10T08:54:09.762Z,99653.13
2023-04-10T08:56:36.882Z,99657.50
2023-04-10T08:59:03.849Z,99646.53
2023-04-10T09:01:31.733Z,99638.72
2023-04-10T09:03:59.475Z,99645.50
2023-04-10T09:06:27.595Z,99637.38
2023-04-10T09:08:54.553Z,99630.84
2023-04-10T09:11:21.794Z,99631.50
2023-04-10T09:13:48.864Z,99631.84
2023-04-10T09:16:16.264Z,99631.25
2023-04-10T09:18:46.327Z,99640.72
2023-04-10T09:21:16.452Z,99634.47
2023-04-10T09:23:45.264Z,99625.41
2023-04-10T09:26:32.150Z,99622.69
2023-04-10T09:29:08.444Z,99621.78
2023-04-10T09:31:36.876Z,99615.00
2023-04-10T09:34:23.693Z,99617.25
2023-04-10T09:36:56.010Z,99613.63
2023-04-10T09:39:30.783Z,99605.00
2023-04-10T09:41:57.992Z,99608.78
2023-04-10T09:44:36.556Z,99600.31
2023-04-10T09:47:18.640Z,99605.63
2023-04-10T09:50:16.877Z,99591.47
2023-04-10T09:52:43.831Z,99592.78
2023-04-10T09:55:17.271Z,99586.56
2023-04-10T09:57:44.892Z,99584.91
2023-04-10T10:00:14.608Z,99578.78
2023-04-10T10:02:42.552Z,99568.63
2023-04-10T10:05:10.669Z,99562.19
2023-04-10T10:07:38.861Z,99552.50
2023-04-10T10:10:11.271Z,99561.69
2023-04-10T10:12:56.998Z,99548.94
2023-04-10T10:15:50.093Z,99542.81
2023-04-10T10:18:43.867Z,99530.31
2023-04-10T10:21:15.186Z,99534.88
2023-04-10T10:23:43.805Z,99532.22
2023-04-10T10:26:12.225Z,99518.00
2023-04-10T10:28:41.129Z,99521.28
2023-04-10T10:31:08.433Z,99519.16
2023-04-10T10:33:38.600Z,99503.91
2023-04-10T10:36:06.589Z,99507.94
2023-04-10T10:38:33.976Z,99500.13
2023-04-10T10:41:19.403Z,99501.44
2023-04-10T10:43:54.736Z,99493.47
2023-04-10T10:46:30.243Z,99488.34
2023-04-10T10:49:01.188Z,99489.22
2023-04-10T10:51:47.237Z,99485.91
2023-04-10T10:54:33.576Z,99485.72
2023-04-10T10:57:01.487Z,99482.41
2023-04-10T11:00:04.428Z,99480.25
2023-04-10T11:02:32.882Z,99473.81
2023-04-10T11:05:00.533Z,99470.50
2023-04-10T11:07:59.275Z,99479.44
2023-04-10T11:11:04.448Z,99459.59
2023-04-10T11:13:39.417Z,99464.53
2023-04-10T11:16:08.755Z,99454.44
2023-04-10T11:19:13.435Z,99451.44
2023-04-10T11:22:01.502Z,99441.13
2023-04-10T11:24:30.065Z,99444.59
2023-04-10T11:26:57.251Z,99430.63
2023-04-10T11:29:36.851Z,99440.91
2023-04-10T11:32:05.243Z,99434.13
2023-04-10T11:34:33.776Z,99430.16
2023-04-10T11:37:09.217Z,99419.69
2023-04-10T11:39:36.325Z,99410.19
2023-04-10T11:42:04.717Z,99403.25
2023-04-10T11:44:35.724Z,99420.28
2023-04-10T11:47:03.396Z,99406.47
2023-04-10T11:49:32.141Z,99396.31
2023-04-10T11:51:59.070Z,99390.91
2023-04-10T11:54:27.396Z,99380.44
2023-04-10T11:57:12.243Z,99386.78
2023-04-10T11:59:39.187Z,99383.78
2023-04-10T12:02:13.254Z,99379.59
2023-04-10T12:04:40.867Z,99364.97
2023-04-10T12:07:08.376Z,99360.19
2023-04-10T12:09:35.433Z,99353.63
2023-04-10T12:12:04.767Z,99344.44
2023-04-10T12:14:36.718Z,99333.91
2023-04-10T12:17:04.905Z,99332.72
2023-04-10T12:19:33.666Z,99335.22
2023-04-10T12:22:03.430Z,99324.72
2023-04-10T12:24:51.278Z,99320.75
2023-04-10T12:27:29.278Z,99322.81
2023-04-10T12:29:57.706Z,99313.88
2023-04-10T12:32:25.914Z,99308.34
2023-04-10T12:34:59.292Z,99300.75
2023-04-10T12:37:52.820Z,99291.03
2023-04-10T12:40:20.930Z,99285.94
2023-04-10T12:42:48.184Z,99283.50
2023-04-10T12:45:15.800Z,99284.09
2023-04-10T12:47:52.171Z,99299.06
2023-04-10T12:50:21.381Z,99289.00
2023-04-10T12:53:09.475Z,99283.50
2023-04-10T12:55:38.569Z,99273.03
2023-04-10T12:58:20.390Z,99267.56
2023-04-10T13:00:48.350Z,99274.34
2023-04-10T13:03:15.860Z,99277.63
2023-04-10T13:05:43.504Z,99264.22
2023-04-10T13:08:10.573Z,99261.16
2023-04-10T13:10:38.660Z,99251.88
2023-04-10T13:13:07.358Z,99259.66
2023-04-10T13:15:35.654Z,99253.63
2023-04-10T13:18:05.212Z,99248.56
2023-04-10T13:20:34.541Z,99236.66
2023-04-10T13:23:02.765Z,99239.50
2023-04-10T13:25:34.323Z,99242.22
2023-04-10T13:28:02.025Z,99238.84
2023-04-10T13:30:30.309Z,99233.53
2023-04-10T13:32:57.228Z,99241.94
2023-04-10T13:35:24.387Z,99228.25
2023-04-10T13:37:54.985Z,99223.00
2023-04-10T13:40:21.898Z,99229.56
2023-04-10T13:42:49.009Z,99217.69
2023-04-10T13:45:16.800Z,99208.44
2023-04-10T13:47:44.225Z,99212.47
2023-04-10T13:50:11.580Z,99201.66
2023-04-10T13:52:38.416Z,99202.16
2023-04-10T13:55:06.744Z,99208.72
2023-04-10T13:57:34.677Z,99192.50
2023-04-10T14:00:02.472Z,99192.97
2023-04-10T14:02:34.386Z,99193.19
2023-04-10T14:05:01.326Z,99191.81
2023-04-10T14:07:36.284Z,99189.16
2023-04-10T14:10:04.846Z,99174.59
2023-04-10T14:12:31.695Z,99167.81
2023-04-10T14:15:10.771Z,99173.50
2023-04-10T14:17:39.730Z,99165.88
2023-04-10T14:20:07.663Z,99168.91
2023-04-10T14:22:44.417Z,99153.63
2023-04-10T14:25:16.255Z,99153.06
2023-04-10T14:27:43.421Z,99142.13
2023-04-10T14:30:14.834Z,99143.41
2023-04-10T14:32:45.176Z,99127.75
2023-04-10T14:35:12.751Z,99128.47
2023-04-10T14:37:39.867Z,99124.44
2023-04-10T14:40:08.837Z,99117.66
2023-04-10T14:42:40.579Z,99109.38
2023-04-10T14:45:08.332Z,99106.75
2023-04-10T14:47:36.744Z,99107.31
2023-04-10T14:50:04.472Z,99098.06
2023-04-10T14:52:32.115Z,99092.47
2023-04-10T14:55:03.144Z,99095.38
2023-04-10T14:57:31.210Z,99093.34
2023-04-10T15:00:00.733Z,99086.22
2023-04-10T15:02:27.670Z,99078.88
2023-04-10T15:04:54.662Z,99071.53
2023-04-10T15:07:21.525Z,99066.34
2023-04-10T15:09:48.762Z,99061.94
2023-04-10T15:12:15.609Z,99065.78
2023-04-10T15:14:42.464Z,99069.06
2023-04-10T15:17:09.465Z,99057.66
2023-04-10T15:19:36.589Z,99062.69
2023-04-10T15:22:04.065Z,99050.06
2023-04-10T15:24:37.007Z,99042.59
2023-04-10T15:27:10.260Z,99040.91
2023-04-10T15:29:43.007Z,99036.56
2023-04-10T15:32:10.017Z,99020.94
2023-04-10T15:34:36.906Z,99016.16
2023-04-10T15:37:04.098Z,99000.22
2023-04-10T15:39:33.787Z,99004.25
2023-04-10T15:42:02.144Z,98998.81
2023-04-10T15:44:29.017Z,98999.84
2023-04-10T15:46:56.143Z,98999.97
2023-04-10T15:49:33.819Z,98990.84
2023-04-10T15:52:05.421Z,98989.72
2023-04-10T15:54:34.114Z,98985.53
2023-04-10T15:57:02.351Z,98984.19
2023-04-10T15:59:29.922Z,98976.72
2023-04-10T16:01:57.354Z,98968.16
2023-04-10T16:04:24.394Z,98970.06
2023-04-10T16:06:51.475Z,98961.25
2023-04-10T16:09:26.237Z,98952.16
2023-04-10T16:11:54.354Z,98953.09
2023-04-10T16:14:21.393Z,98942.56
2023-04-10T16:16:49.198Z,98937.88
2023-04-10T16:19:18.806Z,98932.66
2023-04-10T16:21:45.702Z,98922.44
2023-04-10T16:24:13.307Z,98919.22
2023-04-10T16:26:40.092Z,98912.66
2023-04-10T16:29:09.722Z,98913.19
2023-04-10T16:31:36.526Z,98910.75
2023-04-10T16:34:04.886Z,98911.63
2023-04-10T16:36:31.975Z,98907.16
2023-04-10T16:38:59.530Z,98915.13
2023-04-10T16:41:26.552Z,98914.59
2023-04-10T16:43:54.191Z,98906.53
2023-04-10T16:46:21.121Z,98897.56
2023-04-10T16:48:47.837Z,98898.19
2023-04-10T16:51:18.251Z,98892.72
2023-04-10T16:53:45.521Z,98890.16
2023-04-10T16:56:12.553Z,98880.72
2023-04-10T16:58:41.697Z,98872.59
2023-04-10T17:01:18.800Z,98871.03
2023-04-10T17:03:48.484Z,98870.28
2023-04-10T17:06:16.477Z,98872.94
2023-04-10T17:08:44.677Z,98866.91
2023-04-10T17:11:14.941Z,98861.72
2023-04-10T17:13:42.324Z,98861.28
2023-04-10T17:16:10.161Z,98857.88
2023-04-10T17:18:37.742Z,98854.09
2023-04-10T17:21:05.377Z,98857.75
2023-04-10T17:23:32.301Z,98850.72
2023-04-10T17:25:59.149Z,98846.25
2023-04-10T17:28:26.461Z,98844.59
2023-04-10T17:30:53.361Z,98841.47
2023-04-10T17:33:21.997Z,98837.25
2023-04-10T17:35:51.347Z,98835.06
2023-04-10T17:38:18.371Z,98826.09
2023-04-10T17:40:45.259Z,98826.81
2023-04-10T17:43:12.165Z,98820.97
2023-04-10T17:45:40.506Z,98820.16
2023-04-10T17:48:07.851Z,98837.34
2023-04-10T17:50:35.042Z,98832.84
2023-04-10T17:53:04.719Z,98825.53
2023-04-10T17:55:38.265Z,98830.31
2023-04-10T17:58:05.144Z,98823.81
2023-04-10T18:00:33.328Z,98828.50
2023-04-10T18:03:01.599Z,98824.03
2023-04-10T18:05:29.544Z,98819.56
2023-04-10T18:07:56.824Z,98812.81
2023-04-10T18:10:23.605Z,98809.53
2023-04-10T18:12:50.778Z,98796.94
2023-04-10T18:15:18.216Z,98808.22
2023-04-10T18:17:45.047Z,98812.72
2023-04-10T18:20:11.833Z,98808.63
2023-04-10T18:22:39.825Z,98807.28
2023-04-10T18:25:07.955Z,98805.66
2023-04-10T18:27:36.271Z,98799.56
2023-04-10T18:30:04.801Z,98796.72
2023-04-10T18:32:31.616Z,98788.34
2023-04-10T18:34:58.635Z,98783.41
2023-04-10T18:37:25.482Z,98774.63
2023-04-10T18:39:52.582Z,98771.53
2023-04-10T18:42:19.632Z,98766.47
2023-04-10T18:44:46.552Z,98754.13
2023-04-10T18:47:14.040Z,98759.25
2023-04-10T18:49:41.537Z,98750.50
2023-04-10T18:52:08.537Z,98745.41
2023-04-10T18:54:36.047Z,98743.63
2023-04-10T18:57:02.804Z,98758.19
2023-04-10T18:59:30.500Z,98745.81
2023-04-10T19:01:57.401Z,98750.78
2023-04-10T19:04:24.762Z,98742.22
2023-04-10T19:06:51.778Z,98736.28
2023-04-10T19:09:18.840Z,98735.81
2023-04-10T19:11:46.066Z,98741.25
2023-04-10T19:14:13.018Z,98742.22
2023-04-10T19:16:40.273Z,98731.34
2023-04-10T19:19:07.125Z,98719.47
2023-04-10T19:21:35.204Z,98720.63
2023-04-10T19:24:02.591Z,98717.09
2023-04-10T19:26:29.435Z,98719.56
2023-04-10T19:28:56.444Z,98724.06
2023-04-10T19:31:24.176Z,98734.47
2023-04-10T19:33:51.162Z,98724.44
2023-04-10T19:36:19.035Z,98717.22
2023-04-10T19:38:49.110Z,98716.13
2023-04-10T19:41:16.883Z,98716.66
2023-04-10T19:43:43.960Z,98701.69
2023-04-10T19:46:21.006Z,98693.91
2023-04-10T19:48:49.361Z,98688.47
2023-04-10T19:51:16.211Z,98694.16
2023-04-10T19:53:43.160Z,98705.63
2023-04-10T19:56:10.046Z,98712.88
2023-04-10T19:58:40.895Z,98699.34
2023-04-10T20:01:12.290Z,98686.25
2023-04-10T20:03:39.494Z,98684.13
2023-04-10T20:06:10.563Z,98671.31
2023-04-10T20:08:37.621Z,98682.72
2023-04-10T20:11:07.623Z,98675.44
2023-04-10T20:13:35.152Z,98670.31
2023-04-10T20:16:02.249Z,98667.50
2023-04-10T20:18:29.291Z,98668.03
2023-04-10T20:20:56.100Z,98657.47
2023-04-10T20:23:22.975Z,98655.31
2023-04-10T20:25:49.940Z,98658.44
2023-04-10T20:28:18.095Z,98662.91
2023-04-10T20:30:45.074Z,98649.25
2023-04-10T20:33:12.242Z,98635.69
2023-04-10T20:35:39.379Z,98628.91
2023-04-10T20:38:06.241Z,98624.78
2023-04-10T20:40:33.130Z,98620.38
2023-04-10T20:43:00.263Z,98612.56
2023-04-10T20:45:27.090Z,98616.53
2023-04-10T20:47:53.888Z,98617.06
2023-04-10T20:50:20.709Z,98604.34
2023-04-10T20:52:47.673Z,98600.72
2023-04-10T20:55:14.563Z,98593.28
2023-04-10T20:57:41.379Z,98594.66
2023-04-10T21:00:09.372Z,98594.00
2023-04-10T21:02:36.533Z,98581.16
2023-04-10T21:05:03.894Z,98590.38
2023-04-10T21:07:30.908Z,98583.63
2023-04-10T21:09:57.886Z,98583.44
2023-04-10T21:12:24.708Z,98588.03
2023-04-10T21:14:51.573Z,98595.19
2023-04-10T21:17:19.508Z,98587.09
2023-04-10T21:19:46.328Z,98584.94
2023-04-10T21:22:13.256Z,98576.47
2023-04-10T21:24:40.607Z,98584.34
2023-04-10T21:27:08.328Z,98575.75
2023-04-10T21:29:35.019Z,98571.81
2023-04-10T21:32:01.983Z,98565.69
2023-04-10T21:34:29.117Z,98558.31
2023-04-10T21:36:55.912Z,98531.91
2023-04-10T21:39:22.710Z,98512.81
2023-04-10T21:41:49.790Z,98506.22
2023-04-10T21:44:16.752Z,98506.91
2023-04-10T21:46:43.604Z,98514.34
2023-04-10T21:49:10.844Z,98523.09
2023-04-10T21:51:38.122Z,98527.88
2023-04-10T21:54:05.260Z,98529.66
2023-04-10T21:56:32.341Z,98520.59
2023-04-10T21:58:59.287Z,98510.84
2023-04-10T22:01:26.392Z,98515.16
2023-04-10T22:03:54.530Z,98509.25
2023-04-10T22:06:21.352Z,98488.94
2023-04-10T22:08:48.578Z,98489.13
2023-04-10T22:11:15.420Z,98487.94
2023-04-10T22:13:42.193Z,98487.31
2023-04-10T22:16:09.280Z,98483.69
2023-04-10T22:18:36.398Z,98470.47
2023-04-10T22:21:03.264Z,98456.50
2023-04-10T22:23:30.114Z,98446.56
2023-04-10T22:25:59.985Z,98450.03
2023-04-10T22:28:28.363Z,98457.47
2023-04-10T22:30:55.122Z,98453.31
2023-04-10T22:33:22.487Z,98452.00
2023-04-10T22:35:49.393Z,98454.03
2023-04-10T22:38:16.249Z,98426.81
2023-04-10T22:40:42.988Z,98415.63
2023-04-10T22:43:11.202Z,98414.31
2023-04-10T22:45:37.977Z,98412.38
2023-04-10T22:48:05.046Z,98426.41
2023-04-10T22:50:31.773Z,98418.81
2023-04-10T22:52:58.496Z,98422.16
2023-04-10T22:55:25.436Z,98425.41
2023-04-10T22:57:52.504Z,98428.25
2023-04-10T23:00:19.483Z,98416.09
2023-04-10T23:02:46.488Z,98438.97
2023-04-10T23:05:13.435Z,98434.56
2023-04-10T23:07:40.707Z,98434.25
2023-04-10T23:10:09.077Z,98448.44
2023-04-10T23:12:36.193Z,98441.84
2023-04-10T23:15:03.235Z,98432.00
2023-04-10T23:17:30.179Z,98432.00
2023-04-10T23:19:56.919Z,98449.13
2023-04-10T23:22:23.694Z,98434.19
2023-04-10T23:24:55.098Z,98429.91
2023-04-10T23:27:22.106Z,98430.56
2023-04-10T23:29:49.816Z,98430.94
2023-04-10T23:32:17.326Z,98429.19
2023-04-10T23:34:44.491Z,98434.09
2023-04-10T23:37:11.262Z,98454.16
2023-04-10T23:39:37.969Z,98460.44
2023-04-10T23:42:04.968Z,98475.41
2023-04-10T23:44:31.806Z,98462.41
2023-04-10T23:46:58.787Z,98468.81
2023-04-10T23:49:25.779Z,98462.91
2023-04-10T23:51:52.813Z,98463.44
2023-04-10T23:54:19.613Z,98468.53
2023-04-10T23:56:46.375Z,98470.34
2023-04-10T23:59:17.102Z,98452.91
